createdAt,value
2018-12-11T00:02:16.801Z,2.84
2018-12-11T00:04:45.498Z,2.94
2018-12-11T00:07:14.667Z,3.02
2018-12-11T00:09:43.373Z,3.03
2018-12-11T00:12:12.082Z,3.06
2018-12-11T00:14:40.801Z,3.04
2018-12-11T00:17:09.508Z,3.03
2018-12-11T00:19:38.214Z,3.05
2018-12-11T00:22:06.918Z,3.05
2018-12-11T00:24:35.659Z,3.08
2018-12-11T00:27:04.357Z,3.16
2018-12-11T00:29:33.066Z,3.08
2018-12-11T00:32:01.764Z,3.05
2018-12-11T00:34:30.444Z,3.02
2018-12-11T00:36:59.197Z,3.02
2018-12-11T00:39:27.869Z,2.96
2018-12-11T00:41:56.670Z,2.96
2018-12-11T00:44:25.535Z,2.90
2018-12-11T00:46:54.270Z,2.87
2018-12-11T00:49:23.036Z,2.83
2018-12-11T00:51:51.758Z,2.81
2018-12-11T00:54:20.468Z,2.73
2018-12-11T00:56:49.138Z,2.74
2018-12-11T00:59:18.293Z,2.77
2018-12-11T01:01:46.982Z,2.77
2018-12-11T01:04:15.710Z,2.74
2018-12-11T01:06:44.549Z,2.67
2018-12-11T01:09:13.347Z,2.65
2018-12-11T01:11:42.290Z,2.61
2018-12-11T01:14:11.035Z,2.53
2018-12-11T01:16:39.762Z,2.49
2018-12-11T01:19:08.722Z,2.41
2018-12-11T01:21:37.478Z,2.43
2018-12-11T01:24:06.127Z,2.41
2018-12-11T01:26:34.944Z,2.43
2018-12-11T01:29:03.694Z,2.44
2018-12-11T01:31:32.349Z,2.46
2018-12-11T01:34:01.134Z,2.46
2018-12-11T01:36:29.854Z,2.49
2018-12-11T01:38:58.500Z,2.47
2018-12-11T01:41:27.153Z,2.54
2018-12-11T01:43:55.872Z,2.56
2018-12-11T01:46:24.571Z,2.54
2018-12-11T01:48:53.398Z,2.53
2018-12-11T01:51:22.235Z,2.55
2018-12-11T01:53:50.911Z,2.60
2018-12-11T01:56:20.097Z,2.57
2018-12-11T01:58:48.865Z,2.53
2018-12-11T02:01:17.661Z,2.55
2018-12-11T02:03:46.476Z,2.54
2018-12-11T02:06:15.208Z,2.49
2018-12-11T02:08:43.971Z,2.45
2018-12-11T02:11:12.689Z,2.38
2018-12-11T02:13:41.613Z,2.38
2018-12-11T02:16:10.305Z,2.42
2018-12-11T02:18:39.034Z,2.36
2018-12-11T02:21:07.748Z,2.36
2018-12-11T02:23:36.416Z,2.37
2018-12-11T02:26:11.742Z,2.43
2018-12-11T02:28:41.010Z,2.42
2018-12-11T02:31:09.846Z,2.41
2018-12-11T02:33:38.578Z,2.37
2018-12-11T02:36:07.390Z,2.43
2018-12-11T02:38:36.229Z,2.42
2018-12-11T02:41:04.930Z,2.39
2018-12-11T02:43:33.778Z,2.36
2018-12-11T02:46:02.429Z,2.31
2018-12-11T02:48:31.135Z,2.24
2018-12-11T02:51:00.183Z,2.22
2018-12-11T02:53:28.903Z,2.23
2018-12-11T02:55:57.605Z,2.18
2018-12-11T02:58:26.282Z,2.22
2018-12-11T03:00:54.961Z,2.17
2018-12-11T03:03:23.670Z,2.15
2018-12-11T03:05:52.645Z,2.14
2018-12-11T03:08:21.315Z,2.14
2018-12-11T03:10:50.587Z,2.13
2018-12-11T03:13:19.350Z,2.09
2018-12-11T03:15:48.029Z,2.03
2018-12-11T03:18:16.669Z,2.05
2018-12-11T03:20:45.428Z,2.00
2018-12-11T03:23:14.167Z,2.00
2018-12-11T03:25:42.850Z,2.01
2018-12-11T03:28:11.556Z,2.06
2018-12-11T03:30:40.498Z,2.02
2018-12-11T03:33:09.519Z,2.04
2018-12-11T03:35:38.253Z,2.02
2018-12-11T03:38:06.976Z,1.97
2018-12-11T03:40:36.260Z,1.92
2018-12-11T03:43:04.931Z,1.92
2018-12-11T03:45:33.676Z,1.85
2018-12-11T03:48:02.523Z,1.80
2018-12-11T03:50:31.186Z,1.78
2018-12-11T03:52:59.904Z,1.81
2018-12-11T03:55:28.673Z,1.74
2018-12-11T03:57:57.413Z,1.71
2018-12-11T04:00:26.125Z,1.65
2018-12-11T04:02:54.865Z,1.66
2018-12-11T04:05:23.641Z,1.60
2018-12-11T04:07:53.095Z,1.59
2018-12-11T04:10:21.788Z,1.61
2018-12-11T04:12:50.558Z,1.57
2018-12-11T04:15:19.585Z,1.54
2018-12-11T04:17:48.333Z,1.58
2018-12-11T04:20:17.160Z,1.59
2018-12-11T04:22:45.868Z,1.58
2018-12-11T04:25:14.664Z,1.55
2018-12-11T04:27:43.367Z,1.55
2018-12-11T04:30:12.746Z,1.55
2018-12-11T04:32:41.459Z,1.55
2018-12-11T04:35:10.111Z,1.58
2018-12-11T04:37:38.788Z,1.54
2018-12-11T04:40:08.515Z,1.50
2018-12-11T04:42:37.210Z,1.47
2018-12-11T04:45:07.226Z,1.51
2018-12-11T04:47:36.024Z,1.46
2018-12-11T04:50:06.085Z,1.47
2018-12-11T04:52:34.755Z,1.46
2018-12-11T04:55:03.999Z,1.49
2018-12-11T04:57:32.713Z,1.46
2018-12-11T05:00:01.437Z,1.46
2018-12-11T05:02:30.201Z,1.43
2018-12-11T05:04:58.924Z,1.39
2018-12-11T05:07:27.701Z,1.41
2018-12-11T05:09:56.473Z,1.36
2018-12-11T05:12:25.149Z,1.41
2018-12-11T05:14:53.915Z,1.40
2018-12-11T05:17:22.642Z,1.38
2018-12-11T05:19:51.354Z,1.38
2018-12-11T05:22:20.086Z,1.34
2018-12-11T05:24:48.816Z,1.37
2018-12-11T05:27:17.553Z,1.32
2018-12-11T05:29:46.334Z,1.30
2018-12-11T05:32:15.012Z,1.31
2018-12-11T05:34:43.735Z,1.29
2018-12-11T05:37:12.776Z,1.32
2018-12-11T05:39:41.464Z,1.29
2018-12-11T05:42:10.149Z,1.28
2018-12-11T05:44:38.900Z,1.44
2018-12-11T05:47:07.699Z,1.42
2018-12-11T05:49:36.480Z,1.48
2018-12-11T05:52:05.199Z,1.60
2018-12-11T05:54:34.039Z,1.74
2018-12-11T05:57:02.759Z,1.59
2018-12-11T05:59:37.910Z,1.58
2018-12-11T06:02:07.784Z,1.70
2018-12-11T06:04:36.470Z,1.82
2018-12-11T06:07:05.293Z,1.92
2018-12-11T06:09:34.004Z,1.91
2018-12-11T06:12:04.175Z,1.86
2018-12-11T06:14:32.991Z,1.90
2018-12-11T06:17:02.728Z,1.95
2018-12-11T06:19:31.855Z,1.96
2018-12-11T06:22:00.636Z,1.83
2018-12-11T06:24:29.349Z,1.80
2018-12-11T06:26:58.081Z,1.79
2018-12-11T06:29:26.809Z,1.77
2018-12-11T06:31:55.717Z,1.75
2018-12-11T06:34:24.449Z,1.83
2018-12-11T06:36:53.102Z,1.80
2018-12-11T06:39:21.885Z,1.74
2018-12-11T06:41:50.619Z,1.69
2018-12-11T06:44:19.336Z,1.70
2018-12-11T06:46:48.105Z,1.61
2018-12-11T06:49:16.788Z,1.66
2018-12-11T06:51:45.510Z,1.72
2018-12-11T06:54:14.166Z,1.72
2018-12-11T06:56:42.944Z,1.68
2018-12-11T06:59:11.681Z,1.67
2018-12-11T07:01:40.384Z,1.81
2018-12-11T07:04:09.123Z,1.71
2018-12-11T07:06:37.807Z,1.61
2018-12-11T07:09:07.528Z,1.65
2018-12-11T07:11:36.190Z,1.68
2018-12-11T07:14:04.849Z,1.61
2018-12-11T07:16:33.696Z,1.65
2018-12-11T07:19:02.416Z,1.62
2018-12-11T07:21:31.558Z,1.65
2018-12-11T07:24:00.267Z,1.61
2018-12-11T07:26:28.965Z,1.64
2018-12-11T07:28:57.637Z,1.67
2018-12-11T07:31:26.394Z,1.60
2018-12-11T07:33:55.085Z,1.60
2018-12-11T07:36:23.789Z,1.61
2018-12-11T07:38:52.556Z,1.66
2018-12-11T07:41:21.250Z,1.71
2018-12-11T07:43:50.076Z,1.79
2018-12-11T07:46:18.750Z,1.85
2018-12-11T07:48:47.475Z,1.95
2018-12-11T07:51:16.140Z,1.84
2018-12-11T07:53:44.798Z,1.79
2018-12-11T07:56:13.491Z,1.85
2018-12-11T07:58:42.173Z,1.78
2018-12-11T08:01:10.919Z,1.85
2018-12-11T08:03:39.602Z,1.97
2018-12-11T08:06:08.333Z,2.12
2018-12-11T08:08:37.022Z,2.21
2018-12-11T08:11:05.786Z,2.23
2018-12-11T08:13:34.519Z,2.28
2018-12-11T08:16:03.339Z,2.34
2018-12-11T08:18:32.257Z,2.30
2018-12-11T08:21:01.296Z,2.35
2018-12-11T08:23:30.021Z,2.35
2018-12-11T08:25:58.727Z,2.37
2018-12-11T08:28:27.410Z,2.36
2018-12-11T08:30:56.125Z,2.50
2018-12-11T08:33:24.898Z,2.36
2018-12-11T08:35:53.595Z,2.36
2018-12-11T08:38:22.321Z,2.44
2018-12-11T08:40:50.999Z,2.47
2018-12-11T08:43:19.769Z,2.38
2018-12-11T08:45:48.453Z,2.34
2018-12-11T08:48:17.127Z,2.40
2018-12-11T08:50:45.849Z,2.40
2018-12-11T08:53:14.597Z,2.35
2018-12-11T08:55:43.255Z,2.26
2018-12-11T08:58:11.928Z,2.24
2018-12-11T09:00:40.657Z,2.26
2018-12-11T09:03:09.409Z,2.31
2018-12-11T09:05:38.106Z,2.37
2018-12-11T09:08:06.889Z,2.34
2018-12-11T09:10:35.631Z,2.41
2018-12-11T09:13:04.329Z,2.45
2018-12-11T09:15:33.044Z,2.46
2018-12-11T09:18:01.803Z,2.51
2018-12-11T09:20:30.584Z,2.51
2018-12-11T09:22:59.283Z,2.54
2018-12-11T09:25:27.972Z,2.58
2018-12-11T09:27:56.717Z,2.61
2018-12-11T09:30:25.529Z,2.56
2018-12-11T09:32:54.568Z,2.66
2018-12-11T09:35:23.294Z,2.52
2018-12-11T09:37:52.026Z,2.43
2018-12-11T09:40:24.482Z,2.28
2018-12-11T09:42:51.637Z,2.41
2018-12-11T09:45:20.356Z,2.44
2018-12-11T09:47:49.132Z,2.59
2018-12-11T09:50:17.798Z,2.82
2018-12-11T09:52:46.581Z,3.06
2018-12-11T09:55:15.562Z,3.31
2018-12-11T09:57:44.270Z,3.43
2018-12-11T10:00:13.693Z,3.41
2018-12-11T10:02:42.421Z,3.47
2018-12-11T10:05:11.143Z,3.51
2018-12-11T10:07:39.846Z,3.49
2018-12-11T10:10:09.537Z,3.52
2018-12-11T10:12:38.290Z,3.46
2018-12-11T10:15:08.081Z,3.38
2018-12-11T10:17:36.810Z,3.32
2018-12-11T10:20:06.521Z,3.13
2018-12-11T10:22:35.620Z,3.11
2018-12-11T10:25:05.650Z,3.12
2018-12-11T10:27:34.422Z,3.13
2018-12-11T10:30:12.017Z,3.07
2018-12-11T10:32:40.733Z,2.96
2018-12-11T10:35:10.309Z,2.91
2018-12-11T10:37:39.026Z,2.80
2018-12-11T10:40:08.266Z,2.78
2018-12-11T10:42:37.132Z,2.82
2018-12-11T10:45:06.980Z,2.77
2018-12-11T10:47:35.766Z,2.78
2018-12-11T10:50:05.454Z,2.79
2018-12-11T10:52:34.199Z,2.75
2018-12-11T10:55:03.006Z,2.80
2018-12-11T10:57:31.767Z,2.85
2018-12-11T11:00:00.487Z,2.80
2018-12-11T11:02:29.288Z,2.81
2018-12-11T11:04:58.014Z,2.87
2018-12-11T11:07:26.707Z,2.70
2018-12-11T11:09:55.456Z,2.59
2018-12-11T11:12:24.180Z,2.61
2018-12-11T11:14:52.997Z,2.62
2018-12-11T11:17:21.993Z,2.61
2018-12-11T11:19:50.853Z,2.64
2018-12-11T11:22:19.633Z,2.62
2018-12-11T11:24:48.488Z,2.65
2018-12-11T11:27:17.292Z,2.75
2018-12-11T11:29:46.007Z,2.87
2018-12-11T11:32:14.773Z,2.91
2018-12-11T11:34:43.446Z,2.87
2018-12-11T11:37:12.121Z,2.90
2018-12-11T11:39:40.826Z,2.85
2018-12-11T11:42:09.501Z,2.80
2018-12-11T11:44:39.848Z,2.76
2018-12-11T11:47:09.720Z,2.66
2018-12-11T11:49:38.428Z,2.63
2018-12-11T11:52:07.156Z,2.65
2018-12-11T11:54:35.804Z,2.56
2018-12-11T11:57:04.492Z,2.58
2018-12-11T11:59:33.191Z,2.59
2018-12-11T12:02:01.962Z,2.65
2018-12-11T12:04:30.680Z,2.67
2018-12-11T12:06:59.414Z,2.69
2018-12-11T12:09:28.131Z,2.79
2018-12-11T12:11:56.903Z,2.94
2018-12-11T12:14:25.605Z,2.98
2018-12-11T12:16:54.454Z,2.94
2018-12-11T12:19:23.184Z,2.92
2018-12-11T12:21:52.450Z,2.86
2018-12-11T12:24:21.162Z,2.74
2018-12-11T12:26:49.897Z,2.55
2018-12-11T12:29:18.609Z,2.43
2018-12-11T12:31:47.279Z,2.35
2018-12-11T12:34:16.025Z,2.43
2018-12-11T12:36:44.833Z,2.37
2018-12-11T12:39:13.515Z,2.34
2018-12-11T12:41:42.268Z,2.39
2018-12-11T12:44:10.930Z,2.37
2018-12-11T12:46:39.694Z,2.34
2018-12-11T12:49:08.421Z,2.29
2018-12-11T12:51:37.072Z,2.18
2018-12-11T12:54:05.799Z,2.16
2018-12-11T12:56:34.703Z,2.19
2018-12-11T12:59:04.383Z,2.14
2018-12-11T13:01:33.118Z,2.16
2018-12-11T13:04:01.822Z,2.17
2018-12-11T13:06:31.130Z,2.17
2018-12-11T13:09:00.428Z,2.13
2018-12-11T13:11:29.078Z,2.05
2018-12-11T13:13:58.439Z,2.08
2018-12-11T13:16:27.218Z,2.04
2018-12-11T13:18:55.889Z,2.06
2018-12-11T13:21:24.666Z,2.07
2018-12-11T13:23:53.320Z,2.16
2018-12-11T13:26:21.987Z,2.20
2018-12-11T13:28:50.653Z,2.22
2018-12-11T13:31:19.335Z,2.19
2018-12-11T13:33:48.043Z,2.13
2018-12-11T13:36:17.102Z,2.11
2018-12-11T13:38:46.469Z,2.05
2018-12-11T13:41:15.448Z,2.07
2018-12-11T13:43:44.517Z,2.05
2018-12-11T13:46:13.298Z,2.06
2018-12-11T13:48:42.828Z,2.12
2018-12-11T13:51:11.914Z,2.18
2018-12-11T13:53:40.574Z,2.24
2018-12-11T13:56:09.433Z,2.23
2018-12-11T13:58:38.155Z,2.25
2018-12-11T14:01:06.905Z,2.29
2018-12-11T14:03:35.744Z,2.28
2018-12-11T14:06:04.411Z,2.28
2018-12-11T14:08:33.084Z,2.35
2018-12-11T14:11:01.842Z,2.33
2018-12-11T14:13:30.492Z,2.32
2018-12-11T14:15:59.262Z,2.35
2018-12-11T14:18:27.964Z,2.35
2018-12-11T14:20:56.662Z,2.29
2018-12-11T14:23:25.356Z,2.10
2018-12-11T14:25:54.042Z,2.06
2018-12-11T14:28:22.734Z,2.06
2018-12-11T14:30:51.987Z,2.08
2018-12-11T14:33:20.685Z,2.02
2018-12-11T14:35:50.149Z,2.00
2018-12-11T14:38:18.827Z,1.95
2018-12-11T14:40:47.498Z,1.96
2018-12-11T14:43:16.202Z,1.98
2018-12-11T14:45:45.000Z,1.98
2018-12-11T14:48:13.694Z,2.01
2018-12-11T14:50:42.397Z,2.00
2018-12-11T14:53:11.188Z,1.93
2018-12-11T14:55:39.865Z,1.91
2018-12-11T14:58:09.508Z,1.87
2018-12-11T15:00:38.261Z,1.79
2018-12-11T15:03:06.954Z,1.78
2018-12-11T15:05:35.668Z,1.64
2018-12-11T15:08:04.759Z,1.62
2018-12-11T15:10:33.867Z,1.61
2018-12-11T15:13:02.998Z,1.63
2018-12-11T15:15:31.733Z,1.56
2018-12-11T15:18:00.456Z,1.57
2018-12-11T15:20:29.138Z,1.55
2018-12-11T15:22:57.795Z,1.53
2018-12-11T15:25:26.489Z,1.45
2018-12-11T15:27:55.268Z,1.40
2018-12-11T15:30:23.965Z,1.41
2018-12-11T15:32:53.063Z,1.45
2018-12-11T15:35:21.787Z,1.41
2018-12-11T15:37:50.536Z,1.38
2018-12-11T15:40:19.249Z,1.39
2018-12-11T15:42:48.013Z,1.41
2018-12-11T15:45:16.798Z,1.40
2018-12-11T15:47:45.458Z,1.40
2018-12-11T15:50:14.152Z,1.38
2018-12-11T15:52:42.858Z,1.30
2018-12-11T15:55:11.591Z,1.25
2018-12-11T15:57:40.512Z,1.34
2018-12-11T16:00:12.874Z,1.28
2018-12-11T16:02:41.618Z,1.27
2018-12-11T16:05:10.905Z,1.28
2018-12-11T16:07:39.580Z,1.22
2018-12-11T16:10:09.131Z,1.19
2018-12-11T16:12:37.886Z,1.22
2018-12-11T16:15:07.684Z,1.25
2018-12-11T16:17:36.454Z,1.24
2018-12-11T16:20:06.811Z,1.19
2018-12-11T16:22:35.755Z,1.21
2018-12-11T16:25:05.983Z,1.20
2018-12-11T16:27:35.244Z,1.12
2018-12-11T16:30:11.532Z,1.08
2018-12-11T16:32:40.595Z,1.04
2018-12-11T16:35:09.740Z,1.04
2018-12-11T16:37:38.640Z,1.02
2018-12-11T16:40:08.485Z,1.01
2018-12-11T16:42:37.179Z,1.05
2018-12-11T16:45:07.302Z,1.07
2018-12-11T16:47:36.057Z,1.07
2018-12-11T16:50:05.563Z,0.98
2018-12-11T16:52:34.379Z,0.99
2018-12-11T16:55:03.129Z,1.00
2018-12-11T16:57:31.957Z,1.02
2018-12-11T17:00:00.709Z,1.08
2018-12-11T17:02:29.492Z,1.01
2018-12-11T17:05:05.881Z,1.04
2018-12-11T17:07:34.565Z,1.04
2018-12-11T17:10:03.371Z,1.08
2018-12-11T17:12:33.038Z,1.03
2018-12-11T17:15:03.055Z,1.11
2018-12-11T17:17:32.339Z,1.13
2018-12-11T17:20:01.041Z,1.10
2018-12-11T17:22:31.522Z,1.19
2018-12-11T17:25:00.290Z,1.08
2018-12-11T17:27:29.027Z,1.12
2018-12-11T17:29:57.718Z,1.15
2018-12-11T17:32:26.408Z,1.12
2018-12-11T17:35:03.386Z,1.04
2018-12-11T17:37:32.295Z,1.13
2018-12-11T17:40:01.095Z,1.10
2018-12-11T17:42:29.814Z,1.13
2018-12-11T17:44:58.533Z,1.11
2018-12-11T17:47:27.260Z,1.04
2018-12-11T17:49:56.031Z,1.04
2018-12-11T17:52:24.771Z,1.02
2018-12-11T17:54:53.434Z,0.97
2018-12-11T17:57:22.237Z,0.92
2018-12-11T17:59:50.949Z,0.90
2018-12-11T18:02:24.886Z,0.83
2018-12-11T18:04:53.760Z,0.91
2018-12-11T18:07:22.588Z,0.94
2018-12-11T18:09:51.308Z,0.93
2018-12-11T18:12:20.027Z,0.96
2018-12-11T18:14:48.717Z,0.94
2018-12-11T18:17:17.380Z,0.95
2018-12-11T18:19:46.086Z,0.92
2018-12-11T18:22:14.871Z,0.93
2018-12-11T18:24:43.605Z,0.97
2018-12-11T18:27:12.258Z,1.03
2018-12-11T18:29:40.978Z,1.03
2018-12-11T18:32:10.376Z,1.10
2018-12-11T18:34:45.178Z,1.17
2018-12-11T18:37:14.795Z,1.17
2018-12-11T18:39:43.623Z,1.16
2018-12-11T18:42:12.397Z,1.14
2018-12-11T18:44:42.038Z,1.06
2018-12-11T18:47:10.754Z,0.98
2018-12-11T18:49:40.337Z,0.95
2018-12-11T18:52:09.346Z,0.93
2018-12-11T18:54:38.118Z,0.91
2018-12-11T18:57:06.923Z,0.88
2018-12-11T18:59:35.740Z,0.82
2018-12-11T19:02:04.806Z,0.84
2018-12-11T19:04:33.518Z,0.84
2018-12-11T19:07:02.314Z,0.86
2018-12-11T19:09:31.158Z,0.73
2018-12-11T19:12:00.251Z,0.70
2018-12-11T19:14:30.281Z,0.63
2018-12-11T19:16:59.036Z,0.69
2018-12-11T19:19:27.746Z,0.64
2018-12-11T19:21:56.475Z,0.66
2018-12-11T19:24:31.600Z,0.66
2018-12-11T19:27:01.031Z,0.64
2018-12-11T19:29:29.753Z,0.63
2018-12-11T19:31:58.934Z,0.55
2018-12-11T19:34:27.770Z,0.59
2018-12-11T19:36:56.540Z,0.61
2018-12-11T19:39:25.332Z,0.58
2018-12-11T19:41:54.039Z,0.55
2018-12-11T19:44:22.739Z,0.56
2018-12-11T19:46:51.520Z,0.58
2018-12-11T19:49:20.290Z,0.54
2018-12-11T19:51:49.059Z,0.50
2018-12-11T19:54:17.704Z,0.53
2018-12-11T19:56:46.367Z,0.49
2018-12-11T19:59:15.173Z,0.44
2018-12-11T20:01:44.033Z,0.44
2018-12-11T20:04:13.383Z,0.43
2018-12-11T20:06:42.259Z,0.37
2018-12-11T20:09:10.949Z,0.34
2018-12-11T20:11:39.669Z,0.37
2018-12-11T20:14:08.463Z,0.37
2018-12-11T20:16:37.273Z,0.36
2018-12-11T20:19:07.042Z,0.34
2018-12-11T20:21:35.861Z,0.36
2018-12-11T20:24:05.070Z,0.34
2018-12-11T20:26:39.253Z,0.34
2018-12-11T20:29:06.717Z,0.26
2018-12-11T20:31:35.445Z,0.26
2018-12-11T20:34:04.172Z,0.30
2018-12-11T20:36:33.026Z,0.31
2018-12-11T20:39:01.804Z,0.34
2018-12-11T20:41:31.158Z,0.34
2018-12-11T20:43:59.918Z,0.35
2018-12-11T20:46:28.626Z,0.38
2018-12-11T20:48:57.311Z,0.36
2018-12-11T20:51:26.077Z,0.25
2018-12-11T20:53:54.888Z,0.30
2018-12-11T20:56:23.679Z,0.30
2018-12-11T20:58:52.688Z,0.34
2018-12-11T21:01:21.367Z,0.27
2018-12-11T21:03:50.273Z,0.24
2018-12-11T21:06:19.240Z,0.27
2018-12-11T21:08:47.980Z,0.28
2018-12-11T21:11:16.970Z,0.25
2018-12-11T21:13:45.727Z,0.31
2018-12-11T21:16:14.420Z,0.32
2018-12-11T21:18:43.751Z,0.32
2018-12-11T21:21:12.956Z,0.41
2018-12-11T21:23:41.619Z,0.47
2018-12-11T21:26:11.255Z,0.48
2018-12-11T21:28:39.998Z,0.54
2018-12-11T21:31:08.730Z,0.62
2018-12-11T21:33:37.399Z,0.58
2018-12-11T21:36:06.117Z,0.66
2018-12-11T21:38:34.807Z,0.68
2018-12-11T21:41:03.528Z,0.73
2018-12-11T21:43:32.213Z,0.67
2018-12-11T21:46:01.040Z,0.70
2018-12-11T21:48:29.797Z,0.78
2018-12-11T21:50:58.458Z,0.84
2018-12-11T21:53:27.185Z,0.94
2018-12-11T21:55:55.902Z,0.89
2018-12-11T21:58:24.577Z,0.94
2018-12-11T22:00:53.881Z,0.95
2018-12-11T22:03:22.553Z,1.01
2018-12-11T22:05:51.290Z,1.00
2018-12-11T22:08:20.101Z,1.06
2018-12-11T22:10:49.050Z,1.06
2018-12-11T22:13:17.747Z,1.14
2018-12-11T22:15:46.474Z,1.18
2018-12-11T22:18:15.199Z,1.15
2018-12-11T22:20:44.152Z,1.20
2018-12-11T22:23:12.866Z,1.17
2018-12-11T22:25:41.896Z,1.21
2018-12-11T22:28:10.624Z,1.13
2018-12-11T22:30:39.341Z,1.11
2018-12-11T22:33:08.020Z,1.15
2018-12-11T22:35:36.752Z,1.13
2018-12-11T22:38:05.533Z,1.19
2018-12-11T22:40:34.293Z,1.17
2018-12-11T22:43:08.053Z,1.19
2018-12-11T22:45:36.741Z,1.20
2018-12-11T22:48:05.460Z,1.23
2018-12-11T22:50:34.269Z,1.24
2018-12-11T22:53:03.049Z,1.23
2018-12-11T22:55:31.762Z,1.23
2018-12-11T22:58:00.523Z,1.19
2018-12-11T23:00:30.341Z,1.16
2018-12-11T23:02:59.848Z,1.07
2018-12-11T23:05:28.971Z,1.05
2018-12-11T23:07:57.736Z,1.13
2018-12-11T23:10:26.412Z,1.10
2018-12-11T23:12:55.085Z,1.15
2018-12-11T23:15:23.768Z,1.27
2018-12-11T23:17:52.451Z,1.21
2018-12-11T23:20:21.166Z,1.26
2018-12-11T23:22:49.961Z,1.34
2018-12-11T23:25:19.043Z,1.43
2018-12-11T23:27:47.745Z,1.44
2018-12-11T23:30:16.575Z,1.55
2018-12-11T23:32:45.299Z,1.61
2018-12-11T23:35:14.600Z,1.62
2018-12-11T23:37:43.328Z,1.64
2018-12-11T23:40:12.035Z,1.64
2018-12-11T23:42:40.718Z,1.63
2018-12-11T23:45:09.407Z,1.70
2018-12-11T23:47:38.155Z,1.69
2018-12-11T23:50:07.350Z,1.67
2018-12-11T23:52:36.019Z,1.68
2018-12-11T23:55:05.764Z,1.71
2018-12-11T23:57:34.468Z,1.77
